Aviation Digital Data Service (ADDS)

Output produced by METARs form (0641 UTC 27 March 2017)
found at http://www.aviationweather.gov/adds/metars/
 
TAF SLCO 270430Z 2706/2806 00000KT 9999 SCT015 BKN080 TX32/2719Z TN23 /2710Z 
     BECMG 2714/2717 34007KT 8000 VCSH SCT020 FEW023CB BKN080 
     PROB40 
     TEMPO 2719/2722 3000 TSRA 
     BECMG 2722/2801 00000KT 9999 NSW SCT015 BKN070
       
TAF SLCB 270430Z 2706/2806 00000KT 9999 SCT027 BKN070 TX24/2719Z TN12/2710Z 
     PROB30 
     TEMPO 2707/2709 8000 SHRA FEW030CB 
     BECMG 2713/2715 FEW027 SCT070 
     BECMG 2716/2718 30010KT 
     TEMPO 2719/2722 8000 SHRA SCT027 FEW030CB SCT070
       
TAF SLLP 270430Z 2706/2806 07005KT 3000 VCFG FEW002 SCT010 FEW017CB BKN070 TX13/2720Z TN03/2710Z 
     BECMG 2712/2715 9999 NSW SCT015 
     TEMPO 2717/2720 06010KT 8000 TSRA SCT017 FEW020CB SCT070
       
TAF SLPS 270430Z 2706/2806 00000KT 9999 SCT017 FEW023TCU TX35/2719Z TN19/2710Z 
     PROB30 
     TEMPO 2707/27011 8000 SHRA 
     BECMG 2713/ 2715 05006KT SCT020 
     BECMG 2721/2723 00000KT 
     BECMG 2723/2801 00000KT NSC
       
TAF SLET 270430Z 2706/2806 33010KT 9999 SCT017 TX32/2720Z TN22/2711Z 
     PROB30 
     TEMPO 2708/2712 SCT008 
     BECMG 2714/2716 35015G25KT BKN017 
     TEMPO 2719/2722 8000 SHRA FEW023CB 
     BECMG 2722/2724 33010KT 
     TEMPO 2804/2806 SCT010
       
TAF SLVR 270430Z 2706/2806 34010KT 9999 SCT017 TX32/2720Z TN22/2711Z 
     PROB30 
     TEMPO 2708/2712 SCT008 
     BECMG 2714/2716 35015G25KT BKN017 
     TEMPO 2719/2722 8000 SHRA FEW023CB 
     BECMG 2722/2724 33010KT 
     TEMPO 2804/2806 SCT010
       
TAF SLTJ 270430Z 2706/2806 00000KT 9999 SCT025 BKN070 TX25/2719Z TN14/2710Z 
     BECMG 2707/2709 8000 RA SCT020 OVC070 
     BECMG 2712/2714 9999 NSW SCT027 BKN070 
     BECMG 2716/2718 13010KT SCT030 SCT070 
     TEMPO 2719/2722 8000 SHRA FEW033CB
       
TAF SLTR 270430Z 2706/2806 00000KT 9999 SCT015 SCT070 TX33/2719Z TN23 /2710Z 
     BECMG 2714/2717 31008KT 8000 VCSH SCT017 FEW020CB SCT080 
     PROB30 
     TEMPO 2719/2721 4000 TSRA 
     BECMG 2722/2801 00000KT 9999 NSW SCT015 SCT070